createdAt,value
2019-05-19T00:02:15.649Z,14.00
2019-05-19T00:04:44.154Z,13.80
2019-05-19T00:07:12.732Z,13.70
2019-05-19T00:09:41.325Z,13.60
2019-05-19T00:12:09.869Z,13.50
2019-05-19T00:14:38.448Z,13.50
2019-05-19T00:17:07.001Z,13.50
2019-05-19T00:19:35.723Z,13.50
2019-05-19T00:22:04.329Z,13.50
2019-05-19T00:24:32.849Z,13.50
2019-05-19T00:27:01.484Z,13.30
2019-05-19T00:29:30.058Z,13.30
2019-05-19T00:31:58.619Z,13.30
2019-05-19T00:34:27.192Z,13.20
2019-05-19T00:36:55.736Z,13.20
2019-05-19T00:39:24.264Z,13.10
2019-05-19T00:41:52.823Z,13.10
2019-05-19T00:44:21.472Z,13.20
2019-05-19T00:46:50.103Z,13.20
2019-05-19T00:49:18.866Z,13.10
2019-05-19T00:51:47.395Z,13.00
2019-05-19T00:54:15.980Z,13.00
2019-05-19T00:56:44.873Z,13.10
2019-05-19T00:59:13.909Z,13.10
2019-05-19T01:01:42.457Z,13.10
2019-05-19T01:04:11.035Z,13.20
2019-05-19T01:06:39.595Z,13.10
2019-05-19T01:09:08.232Z,13.00
2019-05-19T01:11:36.795Z,13.00
2019-05-19T01:14:05.533Z,13.00
2019-05-19T01:16:34.107Z,13.00
2019-05-19T01:19:02.753Z,13.00
2019-05-19T01:21:31.950Z,12.90
2019-05-19T01:24:00.491Z,12.90
2019-05-19T01:26:29.058Z,12.80
2019-05-19T01:28:57.654Z,12.90
2019-05-19T01:31:26.325Z,12.90
2019-05-19T01:33:54.865Z,12.90
2019-05-19T01:36:23.448Z,12.90
2019-05-19T01:38:52.009Z,12.90
2019-05-19T01:41:20.610Z,12.80
2019-05-19T01:43:49.164Z,12.70
2019-05-19T01:46:17.744Z,12.70
2019-05-19T01:48:46.320Z,12.60
2019-05-19T01:51:14.905Z,12.60
2019-05-19T01:53:43.460Z,12.60
2019-05-19T01:56:12.061Z,12.50
2019-05-19T01:58:40.639Z,12.60
2019-05-19T02:01:09.201Z,12.60
2019-05-19T02:03:37.766Z,12.60
2019-05-19T02:06:06.358Z,12.60
2019-05-19T02:08:34.916Z,12.50
2019-05-19T02:11:03.581Z,12.50
2019-05-19T02:13:32.141Z,12.40
2019-05-19T02:16:00.741Z,12.50
2019-05-19T02:18:29.306Z,12.50
2019-05-19T02:20:57.883Z,12.40
2019-05-19T02:23:26.437Z,12.50
2019-05-19T02:25:55.022Z,12.50
2019-05-19T02:28:23.626Z,12.40
2019-05-19T02:30:52.195Z,12.40
2019-05-19T02:33:20.757Z,12.30
2019-05-19T02:35:49.334Z,12.40
2019-05-19T02:38:17.906Z,12.40
2019-05-19T02:40:52.250Z,12.30
2019-05-19T02:43:22.268Z,12.20
2019-05-19T02:45:53.915Z,12.30
2019-05-19T02:48:23.361Z,12.20
2019-05-19T02:50:53.866Z,12.30
2019-05-19T02:53:23.768Z,12.40
2019-05-19T02:55:53.592Z,12.40
2019-05-19T02:58:22.494Z,12.30
2019-05-19T03:00:51.065Z,12.30
2019-05-19T03:03:19.642Z,12.30
2019-05-19T03:05:48.220Z,12.20
2019-05-19T03:08:16.790Z,12.20
2019-05-19T03:10:45.611Z,12.20
2019-05-19T03:13:14.199Z,12.10
2019-05-19T03:15:42.812Z,12.10
2019-05-19T03:18:11.306Z,12.10
2019-05-19T03:20:39.875Z,12.20
2019-05-19T03:23:08.449Z,12.10
2019-05-19T03:25:37.017Z,12.00
2019-05-19T03:28:05.608Z,12.00
2019-05-19T03:30:53.665Z,12.10
2019-05-19T03:33:23.884Z,12.00
2019-05-19T03:35:52.458Z,12.00
2019-05-19T03:38:21.025Z,11.90
2019-05-19T03:40:49.607Z,11.90
2019-05-19T03:43:18.196Z,11.80
2019-05-19T03:45:46.741Z,11.80
2019-05-19T03:48:15.332Z,11.80
2019-05-19T03:50:43.875Z,12.00
2019-05-19T03:53:12.448Z,12.00
2019-05-19T03:55:41.075Z,12.10
2019-05-19T03:58:09.662Z,12.40
2019-05-19T04:00:38.225Z,12.40
2019-05-19T04:03:06.796Z,12.60
2019-05-19T04:05:35.351Z,12.80
2019-05-19T04:08:03.948Z,13.00
2019-05-19T04:10:32.508Z,13.20
2019-05-19T04:13:01.073Z,13.30
2019-05-19T04:15:29.554Z,13.40
2019-05-19T04:17:58.120Z,13.50
2019-05-19T04:20:26.680Z,13.60
2019-05-19T04:22:55.253Z,13.90
2019-05-19T04:25:23.744Z,14.00
2019-05-19T04:27:52.328Z,14.10
2019-05-19T04:30:21.127Z,14.30
2019-05-19T04:32:49.705Z,14.40
2019-05-19T04:35:18.267Z,14.60
2019-05-19T04:37:46.821Z,14.60
2019-05-19T04:40:15.528Z,14.80
2019-05-19T04:42:44.027Z,14.70
2019-05-19T04:45:12.680Z,14.70
2019-05-19T04:47:41.250Z,14.90
2019-05-19T04:50:10.165Z,15.20
2019-05-19T04:52:38.720Z,15.40
2019-05-19T04:55:07.649Z,15.70
2019-05-19T04:57:36.879Z,15.70
2019-05-19T05:00:07.105Z,15.90
2019-05-19T05:02:35.681Z,16.00
2019-05-19T05:05:06.466Z,16.20
2019-05-19T05:07:35.037Z,16.30
2019-05-19T05:10:04.150Z,16.20
2019-05-19T05:12:32.733Z,16.40
2019-05-19T05:15:01.292Z,16.50
2019-05-19T05:17:29.846Z,16.90
2019-05-19T05:19:58.438Z,17.10
2019-05-19T05:22:26.999Z,17.30
2019-05-19T05:24:55.585Z,17.20
2019-05-19T05:27:24.190Z,17.10
2019-05-19T05:29:52.749Z,17.00
2019-05-19T05:32:21.306Z,17.20
2019-05-19T05:34:49.905Z,17.30
2019-05-19T05:37:18.468Z,17.50
2019-05-19T05:39:47.068Z,17.40
2019-05-19T05:42:15.620Z,17.40
2019-05-19T05:44:44.196Z,17.50
2019-05-19T05:47:12.917Z,17.90
2019-05-19T05:49:41.563Z,18.20
2019-05-19T05:52:10.063Z,18.40
2019-05-19T05:54:38.648Z,18.20
2019-05-19T05:57:07.202Z,18.20
2019-05-19T05:59:35.757Z,18.40
2019-05-19T06:02:04.333Z,18.50
2019-05-19T06:04:32.902Z,18.70
2019-05-19T06:07:01.476Z,19.00
2019-05-19T06:09:30.058Z,18.90
2019-05-19T06:11:58.627Z,18.80
2019-05-19T06:14:27.201Z,19.10
2019-05-19T06:16:55.786Z,19.60
2019-05-19T06:19:24.345Z,19.80
2019-05-19T06:21:53.114Z,20.00
2019-05-19T06:24:21.718Z,19.70
2019-05-19T06:26:50.285Z,19.40
2019-05-19T06:29:18.853Z,20.00
2019-05-19T06:31:47.434Z,20.20
2019-05-19T06:34:15.999Z,20.40
2019-05-19T06:36:44.565Z,20.80
2019-05-19T06:39:13.198Z,20.90
2019-05-19T06:41:41.764Z,20.90
2019-05-19T06:44:10.330Z,20.70
2019-05-19T06:46:38.906Z,20.70
2019-05-19T06:49:07.455Z,21.10
2019-05-19T06:51:36.033Z,21.60
2019-05-19T06:54:04.731Z,21.10
2019-05-19T06:56:33.340Z,21.40
2019-05-19T06:59:02.053Z,21.20
2019-05-19T07:01:30.681Z,21.20
2019-05-19T07:03:59.257Z,22.30
2019-05-19T07:06:27.839Z,22.40
2019-05-19T07:08:56.443Z,22.50
2019-05-19T07:11:25.028Z,23.10
2019-05-19T07:13:53.604Z,23.20
2019-05-19T07:16:22.187Z,23.30
2019-05-19T07:18:50.810Z,23.50
2019-05-19T07:21:19.330Z,22.60
2019-05-19T07:23:47.891Z,23.20
2019-05-19T07:26:16.453Z,23.50
2019-05-19T07:28:44.964Z,23.80
2019-05-19T07:31:13.587Z,23.90
2019-05-19T07:33:42.131Z,23.40
2019-05-19T07:36:10.788Z,23.90
2019-05-19T07:38:39.378Z,24.60
2019-05-19T07:41:07.936Z,25.50
2019-05-19T07:43:36.539Z,25.20
2019-05-19T07:46:05.195Z,24.80
2019-05-19T07:48:33.884Z,24.80
2019-05-19T07:51:02.482Z,25.20
2019-05-19T07:53:42.291Z,25.70
2019-05-19T07:56:01.291Z,26.20
2019-05-19T07:58:29.865Z,25.40
2019-05-19T08:00:58.446Z,25.40
2019-05-19T08:03:27.009Z,25.30
2019-05-19T08:05:57.140Z,24.60
2019-05-19T08:08:25.732Z,24.30
2019-05-19T08:10:54.439Z,24.50
2019-05-19T08:13:23.101Z,25.40
2019-05-19T08:15:51.782Z,25.30
2019-05-19T08:18:20.554Z,25.10
2019-05-19T08:20:49.100Z,24.30
2019-05-19T08:23:17.664Z,23.20
2019-05-19T08:25:46.289Z,22.90
2019-05-19T08:28:14.829Z,22.40
2019-05-19T08:30:43.430Z,22.70
2019-05-19T08:33:12.010Z,21.90
2019-05-19T08:35:40.609Z,22.00
2019-05-19T08:38:09.135Z,22.60
2019-05-19T08:40:37.694Z,23.20
2019-05-19T08:43:06.279Z,23.90
2019-05-19T08:45:34.851Z,25.30
2019-05-19T08:48:03.499Z,26.50
2019-05-19T08:50:32.069Z,25.50
2019-05-19T08:53:00.797Z,24.90
2019-05-19T08:55:29.349Z,25.00
2019-05-19T08:57:57.905Z,25.40
2019-05-19T09:00:26.485Z,25.40
2019-05-19T09:02:55.068Z,25.70
2019-05-19T09:05:23.604Z,25.70
2019-05-19T09:07:52.164Z,26.50
2019-05-19T09:10:20.738Z,25.90
2019-05-19T09:12:49.303Z,25.00
2019-05-19T09:15:17.933Z,25.90
2019-05-19T09:17:46.492Z,24.60
2019-05-19T09:20:15.252Z,24.30
2019-05-19T09:22:43.840Z,24.90
2019-05-19T09:25:12.557Z,25.60
2019-05-19T09:27:41.121Z,26.40
2019-05-19T09:30:11.092Z,26.00
2019-05-19T09:32:39.649Z,25.80
2019-05-19T09:35:08.680Z,25.80
2019-05-19T09:37:37.249Z,25.90
2019-05-19T09:40:07.655Z,26.30
2019-05-19T09:42:36.225Z,26.50
2019-05-19T09:45:08.759Z,27.30
2019-05-19T09:47:37.839Z,27.10
2019-05-19T09:50:07.178Z,27.60
2019-05-19T09:52:35.829Z,27.80
2019-05-19T09:55:05.216Z,26.80
2019-05-19T09:57:33.887Z,26.90
2019-05-19T10:00:02.852Z,26.30
2019-05-19T10:02:31.339Z,26.00
2019-05-19T10:04:59.922Z,26.70
2019-05-19T10:07:28.550Z,26.50
2019-05-19T10:10:02.376Z,25.80
2019-05-19T10:12:31.011Z,26.40
2019-05-19T10:14:59.880Z,27.20
2019-05-19T10:17:28.800Z,28.10
2019-05-19T10:19:57.374Z,28.70
2019-05-19T10:22:26.081Z,28.10
2019-05-19T10:25:10.291Z,28.00
2019-05-19T10:27:25.654Z,27.10
2019-05-19T10:29:54.278Z,27.80
2019-05-19T10:32:22.856Z,27.30
2019-05-19T10:34:51.479Z,27.40
2019-05-19T10:37:20.134Z,27.70
2019-05-19T10:39:48.682Z,27.20
2019-05-19T10:42:17.267Z,26.90
2019-05-19T10:44:45.838Z,28.20
2019-05-19T10:47:14.431Z,28.00
2019-05-19T10:49:43.232Z,27.80
2019-05-19T10:52:11.855Z,27.30
2019-05-19T10:54:40.398Z,27.80
2019-05-19T10:57:09.066Z,27.70
2019-05-19T10:59:37.639Z,27.70
2019-05-19T11:02:06.353Z,27.90
2019-05-19T11:04:34.906Z,26.50
2019-05-19T11:07:03.494Z,26.80
2019-05-19T11:09:32.130Z,27.60
2019-05-19T11:12:00.709Z,27.70
2019-05-19T11:14:29.283Z,27.20
2019-05-19T11:16:57.839Z,26.90
2019-05-19T11:19:26.429Z,27.50
2019-05-19T11:21:55.058Z,27.80
2019-05-19T11:24:23.632Z,27.80
2019-05-19T11:26:52.187Z,27.20
2019-05-19T11:29:20.777Z,27.20
2019-05-19T11:31:49.336Z,28.40
2019-05-19T11:34:17.911Z,28.20
2019-05-19T11:36:46.478Z,27.70
2019-05-19T11:39:15.049Z,28.10
2019-05-19T11:41:43.602Z,28.10
2019-05-19T11:44:12.262Z,29.40
2019-05-19T11:46:40.816Z,30.20
2019-05-19T11:49:09.435Z,28.80
2019-05-19T11:51:38.013Z,29.00
2019-05-19T11:54:06.565Z,29.40
2019-05-19T11:56:35.129Z,29.30
2019-05-19T11:59:03.708Z,28.60
2019-05-19T12:01:32.288Z,27.50
2019-05-19T12:04:00.889Z,27.70
2019-05-19T12:06:38.605Z,27.60
2019-05-19T12:08:59.641Z,27.90
2019-05-19T12:11:28.196Z,28.90
2019-05-19T12:13:56.780Z,28.50
2019-05-19T12:16:25.341Z,27.90
2019-05-19T12:18:57.319Z,28.60
2019-05-19T12:21:24.149Z,28.30
2019-05-19T12:23:52.736Z,27.00
2019-05-19T12:26:23.499Z,27.00
2019-05-19T12:28:51.564Z,28.40
2019-05-19T12:31:20.146Z,27.60
2019-05-19T12:33:51.869Z,27.60
2019-05-19T12:36:18.913Z,26.90
2019-05-19T12:38:47.572Z,26.70
2019-05-19T12:41:16.872Z,25.50
2019-05-19T12:43:45.473Z,25.90
2019-05-19T12:46:16.745Z,27.00
2019-05-19T12:48:44.317Z,26.50
2019-05-19T12:51:12.877Z,27.90
2019-05-19T12:53:41.454Z,27.60
2019-05-19T12:56:10.066Z,27.20
2019-05-19T12:58:38.667Z,27.00
2019-05-19T13:01:07.253Z,26.60
2019-05-19T13:03:35.812Z,27.40
2019-05-19T13:06:04.386Z,26.90
2019-05-19T13:08:32.946Z,26.70
2019-05-19T13:11:01.513Z,26.80
2019-05-19T13:13:30.058Z,26.60
2019-05-19T13:15:58.635Z,26.50
2019-05-19T13:18:27.200Z,27.00
2019-05-19T13:20:55.769Z,27.00
2019-05-19T13:23:24.343Z,26.70
2019-05-19T13:25:52.928Z,26.30
2019-05-19T13:28:21.486Z,26.40
2019-05-19T13:30:50.081Z,26.10
2019-05-19T13:33:18.639Z,26.50
2019-05-19T13:35:47.215Z,26.90
2019-05-19T13:38:15.768Z,27.10
2019-05-19T13:40:44.343Z,26.70
2019-05-19T13:43:12.891Z,26.40
2019-05-19T13:45:41.496Z,26.30
2019-05-19T13:48:10.126Z,26.00
2019-05-19T13:50:38.694Z,26.30
2019-05-19T13:53:07.256Z,26.40
2019-05-19T13:55:35.863Z,26.80
2019-05-19T13:58:04.419Z,26.90
2019-05-19T14:00:33.089Z,26.50
2019-05-19T14:03:01.645Z,25.80
2019-05-19T14:05:30.243Z,26.30
2019-05-19T14:07:58.828Z,26.00
2019-05-19T14:10:27.400Z,26.40
2019-05-19T14:12:55.956Z,25.80
2019-05-19T14:15:24.519Z,25.40
2019-05-19T14:17:53.106Z,25.80
2019-05-19T14:20:21.662Z,25.70
2019-05-19T14:22:50.313Z,26.20
2019-05-19T14:25:18.878Z,26.30
2019-05-19T14:27:47.450Z,27.10
2019-05-19T14:30:16.754Z,26.50
2019-05-19T14:32:45.353Z,26.70
2019-05-19T14:35:13.931Z,26.20
2019-05-19T14:37:42.505Z,25.90
2019-05-19T14:40:11.333Z,25.60
2019-05-19T14:42:44.265Z,25.20
2019-05-19T14:45:13.550Z,25.10
2019-05-19T14:47:42.207Z,25.90
2019-05-19T14:50:11.117Z,25.90
2019-05-19T14:52:39.710Z,25.80
2019-05-19T14:55:08.450Z,25.90
2019-05-19T14:57:44.960Z,25.70
2019-05-19T15:00:07.816Z,25.50
2019-05-19T15:02:36.418Z,25.30
2019-05-19T15:05:06.720Z,25.30
2019-05-19T15:07:35.395Z,25.50
2019-05-19T15:10:05.226Z,25.30
2019-05-19T15:12:33.864Z,25.30
2019-05-19T15:15:02.495Z,25.40
2019-05-19T15:17:31.121Z,25.30
2019-05-19T15:19:59.766Z,25.20
2019-05-19T15:22:28.326Z,24.90
2019-05-19T15:24:56.821Z,25.10
2019-05-19T15:27:25.456Z,24.90
2019-05-19T15:29:54.034Z,24.70
2019-05-19T15:32:22.647Z,24.80
2019-05-19T15:34:51.224Z,24.90
2019-05-19T15:37:19.789Z,24.90
2019-05-19T15:39:48.487Z,24.70
2019-05-19T15:42:17.026Z,24.50
2019-05-19T15:44:46.044Z,24.50
2019-05-19T15:47:14.582Z,24.60
2019-05-19T15:49:43.143Z,24.80
2019-05-19T15:52:11.861Z,24.60
2019-05-19T15:54:40.401Z,24.50
2019-05-19T15:57:08.962Z,24.40
2019-05-19T15:59:37.566Z,24.80
2019-05-19T16:02:06.202Z,25.00
2019-05-19T16:04:34.793Z,24.80
2019-05-19T16:07:03.430Z,24.70
2019-05-19T16:09:31.992Z,24.70
2019-05-19T16:12:00.649Z,24.70
2019-05-19T16:14:29.234Z,24.70
2019-05-19T16:16:57.815Z,24.70
2019-05-19T16:19:26.333Z,24.50
2019-05-19T16:21:54.876Z,24.50
2019-05-19T16:24:23.398Z,24.50
2019-05-19T16:26:52.160Z,24.30
2019-05-19T16:29:20.661Z,24.40
2019-05-19T16:31:49.240Z,24.40
2019-05-19T16:34:17.847Z,24.30
2019-05-19T16:36:46.415Z,24.40
2019-05-19T16:39:17.753Z,24.20
2019-05-19T16:41:46.337Z,24.20
2019-05-19T16:44:14.901Z,24.10
2019-05-19T16:46:43.473Z,24.00
2019-05-19T16:49:12.028Z,24.10
2019-05-19T16:51:40.673Z,24.10
2019-05-19T16:54:13.618Z,24.10
2019-05-19T16:56:42.204Z,24.10
2019-05-19T16:59:10.764Z,24.10
2019-05-19T17:01:39.330Z,24.00
2019-05-19T17:04:07.896Z,24.00
2019-05-19T17:06:36.392Z,24.10
2019-05-19T17:09:09.142Z,24.10
2019-05-19T17:11:37.700Z,24.00
2019-05-19T17:14:06.297Z,24.00
2019-05-19T17:16:34.848Z,24.00
2019-05-19T17:19:03.539Z,23.90
2019-05-19T17:21:32.091Z,23.80
2019-05-19T17:24:00.673Z,23.70
2019-05-19T17:26:29.402Z,23.70
2019-05-19T17:29:00.940Z,23.70
2019-05-19T17:31:28.303Z,23.60
2019-05-19T17:33:56.950Z,23.60
2019-05-19T17:36:27.383Z,23.60
2019-05-19T17:38:55.728Z,23.50
2019-05-19T17:41:24.274Z,23.50
2019-05-19T17:43:52.859Z,23.40
2019-05-19T17:46:21.472Z,23.40
2019-05-19T17:48:50.068Z,23.30
2019-05-19T17:51:18.612Z,23.30
2019-05-19T17:53:47.255Z,23.30
2019-05-19T17:56:16.777Z,23.30
2019-05-19T17:58:46.472Z,23.30
2019-05-19T18:01:15.147Z,23.30
2019-05-19T18:03:44.391Z,23.20
2019-05-19T18:06:12.964Z,23.20
2019-05-19T18:08:41.528Z,23.10
2019-05-19T18:11:10.244Z,23.10
2019-05-19T18:13:38.801Z,23.10
2019-05-19T18:16:07.455Z,23.00
2019-05-19T18:18:36.027Z,23.00
2019-05-19T18:21:04.614Z,22.90
2019-05-19T18:23:33.215Z,22.90
2019-05-19T18:26:01.782Z,22.90
2019-05-19T18:28:30.342Z,22.90
2019-05-19T18:30:58.926Z,22.80
2019-05-19T18:33:27.489Z,22.70
2019-05-19T18:35:56.052Z,22.70
2019-05-19T18:38:24.811Z,22.60
2019-05-19T18:40:53.362Z,22.60
2019-05-19T18:43:22.100Z,22.50
2019-05-19T18:45:50.644Z,22.50
2019-05-19T18:48:19.220Z,22.40
2019-05-19T18:50:47.795Z,22.30
2019-05-19T18:53:16.380Z,22.20
2019-05-19T18:55:44.985Z,22.20
2019-05-19T18:58:13.570Z,22.10
2019-05-19T19:00:42.148Z,22.00
2019-05-19T19:03:10.957Z,21.80
2019-05-19T19:05:39.597Z,21.70
2019-05-19T19:08:08.188Z,21.70
2019-05-19T19:10:36.777Z,21.70
2019-05-19T19:13:05.445Z,21.50
2019-05-19T19:15:33.947Z,21.40
2019-05-19T19:18:02.518Z,21.30
2019-05-19T19:20:31.095Z,21.20
2019-05-19T19:22:59.657Z,21.10
2019-05-19T19:25:28.366Z,21.10
2019-05-19T19:27:56.927Z,21.00
2019-05-19T19:30:26.634Z,20.90
2019-05-19T19:32:55.320Z,20.80
2019-05-19T19:35:23.905Z,20.80
2019-05-19T19:37:52.487Z,20.70
2019-05-19T19:40:29.129Z,20.70
2019-05-19T19:42:59.333Z,20.60
2019-05-19T19:45:27.966Z,20.50
2019-05-19T19:47:56.521Z,20.50
2019-05-19T19:50:25.242Z,20.40
2019-05-19T19:52:53.819Z,20.30
2019-05-19T19:55:22.440Z,20.20
2019-05-19T19:57:50.976Z,20.20
2019-05-19T20:00:40.703Z,20.10
2019-05-19T20:03:09.388Z,20.00
2019-05-19T20:05:38.395Z,19.90
2019-05-19T20:08:07.302Z,19.90
2019-05-19T20:10:37.011Z,19.90
2019-05-19T20:13:06.212Z,19.80
2019-05-19T20:15:35.608Z,19.80
2019-05-19T20:18:04.321Z,19.80
2019-05-19T20:20:32.985Z,19.70
2019-05-19T20:23:01.579Z,19.70
2019-05-19T20:25:30.700Z,19.60
2019-05-19T20:27:59.289Z,19.60
2019-05-19T20:30:35.743Z,19.50
2019-05-19T20:32:58.228Z,19.40
2019-05-19T20:35:26.785Z,19.20
2019-05-19T20:37:55.535Z,19.20
2019-05-19T20:40:24.087Z,19.10
2019-05-19T20:42:52.673Z,19.10
2019-05-19T20:45:21.261Z,19.10
2019-05-19T20:47:49.930Z,19.00
2019-05-19T20:50:18.495Z,19.00
2019-05-19T20:52:47.075Z,19.00
2019-05-19T20:55:15.653Z,18.90
2019-05-19T20:57:44.211Z,18.80
2019-05-19T21:00:13.039Z,18.70
2019-05-19T21:02:41.569Z,18.70
2019-05-19T21:05:10.409Z,18.60
2019-05-19T21:07:38.978Z,18.60
2019-05-19T21:10:08.084Z,18.60
2019-05-19T21:12:36.655Z,18.60
2019-05-19T21:15:06.413Z,18.60
2019-05-19T21:17:35.051Z,18.50
2019-05-19T21:20:05.182Z,18.70
2019-05-19T21:22:33.821Z,18.60
2019-05-19T21:25:02.375Z,18.50
2019-05-19T21:27:30.924Z,18.60
2019-05-19T21:29:59.423Z,18.50
2019-05-19T21:32:27.983Z,18.40
2019-05-19T21:34:56.561Z,18.30
2019-05-19T21:37:25.209Z,18.30
2019-05-19T21:39:53.781Z,18.20
2019-05-19T21:42:22.263Z,18.20
2019-05-19T21:44:50.834Z,18.10
2019-05-19T21:47:19.436Z,18.00
2019-05-19T21:49:48.124Z,18.00
2019-05-19T21:52:16.691Z,18.00
2019-05-19T21:54:45.258Z,17.90
2019-05-19T21:57:13.820Z,17.90
2019-05-19T21:59:42.401Z,17.80
2019-05-19T22:02:11.021Z,17.80
2019-05-19T22:04:40.049Z,17.80
2019-05-19T22:07:13.243Z,17.80
2019-05-19T22:09:41.826Z,17.80
2019-05-19T22:12:10.397Z,17.70
2019-05-19T22:14:38.978Z,17.70
2019-05-19T22:17:07.611Z,17.60
2019-05-19T22:19:36.195Z,17.60
2019-05-19T22:22:04.763Z,17.60
2019-05-19T22:24:33.332Z,17.60
2019-05-19T22:27:01.878Z,17.50
2019-05-19T22:29:30.438Z,17.60
2019-05-19T22:31:59.022Z,17.60
2019-05-19T22:34:27.582Z,17.70
2019-05-19T22:36:56.166Z,17.70
2019-05-19T22:39:24.726Z,17.60
2019-05-19T22:41:53.315Z,17.60
2019-05-19T22:44:21.875Z,17.60
2019-05-19T22:46:50.448Z,17.60
2019-05-19T22:49:19.069Z,17.50
2019-05-19T22:51:47.640Z,17.50
2019-05-19T22:54:16.280Z,17.40
2019-05-19T22:56:44.862Z,17.40
2019-05-19T22:59:19.588Z,17.40
2019-05-19T23:01:51.278Z,17.30
2019-05-19T23:04:13.906Z,17.20
2019-05-19T23:06:42.482Z,17.20
2019-05-19T23:09:11.065Z,17.20
2019-05-19T23:11:39.641Z,17.10
2019-05-19T23:14:08.210Z,17.10
2019-05-19T23:16:36.769Z,17.00
2019-05-19T23:19:05.320Z,17.00
2019-05-19T23:21:34.531Z,17.00
2019-05-19T23:24:03.180Z,17.00
2019-05-19T23:26:31.743Z,16.90
2019-05-19T23:29:00.309Z,16.90
2019-05-19T23:31:28.908Z,16.90
2019-05-19T23:33:57.471Z,16.90
2019-05-19T23:36:26.024Z,16.90
2019-05-19T23:38:54.517Z,16.80
2019-05-19T23:41:23.066Z,16.90
2019-05-19T23:43:51.672Z,16.80
2019-05-19T23:46:20.241Z,16.90
2019-05-19T23:48:48.822Z,16.90
2019-05-19T23:51:17.387Z,16.80
2019-05-19T23:53:45.963Z,16.80
2019-05-19T23:56:14.530Z,16.80
2019-05-19T23:58:43.112Z,16.80
